createdAt,value
2022-12-31T00:02:50.981Z,72.1
2022-12-31T00:12:50.883Z,71.4
2022-12-31T00:22:50.845Z,71.7
2022-12-31T00:27:50.869Z,73.3
2022-12-31T00:37:50.861Z,73.1
2022-12-31T00:42:50.872Z,72.8
2022-12-31T00:47:50.884Z,72.9
2022-12-31T00:52:50.851Z,71.8
2022-12-31T00:57:50.864Z,71.3
2022-12-31T01:07:50.895Z,70.8
2022-12-31T01:12:50.838Z,70.5
2022-12-31T01:22:50.905Z,72.5
2022-12-31T01:32:50.883Z,73.1
2022-12-31T01:37:50.865Z,72.4
2022-12-31T01:47:50.873Z,71.7
2022-12-31T01:57:50.840Z,71.1
2022-12-31T02:02:50.941Z,71
2022-12-31T02:12:50.880Z,71.3
2022-12-31T02:17:50.840Z,71.9
2022-12-31T02:22:50.847Z,72.7
2022-12-31T02:27:50.848Z,72.2
2022-12-31T02:32:50.871Z,72.7
2022-12-31T02:37:50.859Z,72.6
2022-12-31T02:47:50.848Z,72.1
2022-12-31T02:57:50.886Z,71.6
2022-12-31T03:02:50.896Z,71.6
2022-12-31T03:12:50.846Z,72.5
2022-12-31T03:17:50.885Z,72.6
2022-12-31T03:27:50.848Z,72.8
2022-12-31T03:32:50.873Z,72.6
2022-12-31T03:42:50.874Z,72.2
2022-12-31T03:52:50.872Z,71.9
2022-12-31T04:02:50.951Z,72.1
2022-12-31T04:07:50.857Z,72.8
2022-12-31T04:17:50.857Z,73.2
2022-12-31T04:22:50.875Z,73.4
2022-12-31T04:27:50.864Z,72.9
2022-12-31T04:37:50.893Z,72.5
2022-12-31T04:47:50.887Z,72.1
2022-12-31T04:57:50.855Z,72.6
2022-12-31T05:02:51.104Z,73.5
2022-12-31T05:12:50.882Z,73.3
2022-12-31T05:22:50.866Z,73.3
2022-12-31T05:32:51.035Z,72.7
2022-12-31T05:42:50.867Z,72.4
2022-12-31T05:52:50.954Z,73
2022-12-31T06:02:50.934Z,73.6
2022-12-31T06:12:50.876Z,73.5
2022-12-31T06:22:50.864Z,73.1
2022-12-31T06:27:50.861Z,72.9
2022-12-31T06:37:50.915Z,72.5
2022-12-31T06:47:50.862Z,73.1
2022-12-31T06:52:50.864Z,73.8
2022-12-31T07:02:51.005Z,73.6
2022-12-31T07:07:50.865Z,73.8
2022-12-31T07:12:50.869Z,73.4
2022-12-31T07:17:50.875Z,73.2
2022-12-31T07:22:50.889Z,72.9
2022-12-31T07:27:50.867Z,72.7
2022-12-31T07:37:50.872Z,72.8
2022-12-31T07:42:50.951Z,73.3
2022-12-31T07:52:50.867Z,74
2022-12-31T07:57:50.863Z,73.9
2022-12-31T08:07:50.886Z,73.5
2022-12-31T08:12:50.859Z,73.3
2022-12-31T08:22:50.880Z,72.9
2022-12-31T08:27:50.899Z,73.1
2022-12-31T08:32:50.864Z,72.9
2022-12-31T08:37:50.862Z,73.9
2022-12-31T08:42:50.863Z,73.7
2022-12-31T08:47:55.064Z,73.8
2022-12-31T08:52:50.862Z,73.8
2022-12-31T09:02:50.863Z,73.6
2022-12-31T09:12:50.907Z,73.2
2022-12-31T09:17:50.879Z,73
2022-12-31T09:22:50.877Z,73.1
2022-12-31T09:32:55.366Z,74
2022-12-31T09:42:50.870Z,74
2022-12-31T09:47:50.878Z,73.8
2022-12-31T09:57:50.909Z,73.5
2022-12-31T10:07:53.581Z,73.2
2022-12-31T10:12:50.875Z,73.3
2022-12-31T10:22:50.899Z,73.5
2022-12-31T10:27:50.872Z,73.7
2022-12-31T10:32:50.888Z,73.6
2022-12-31T10:42:50.903Z,73.8
2022-12-31T10:52:50.873Z,73.5
2022-12-31T10:57:50.878Z,73.3
2022-12-31T11:02:51.001Z,73.2
2022-12-31T11:12:50.891Z,73.1
2022-12-31T11:17:50.884Z,73.7
2022-12-31T11:27:50.907Z,73.7
2022-12-31T11:32:50.896Z,73.8
2022-12-31T11:42:50.882Z,73.6
2022-12-31T11:52:50.926Z,73.4
2022-12-31T12:02:50.972Z,73.2
2022-12-31T12:12:50.912Z,73.5
2022-12-31T12:17:50.882Z,73.8
2022-12-31T12:27:50.881Z,73.6
2022-12-31T12:32:50.917Z,73.7
2022-12-31T12:42:50.888Z,73.6
2022-12-31T12:47:50.911Z,73.3
2022-12-31T12:57:50.913Z,73.2
2022-12-31T13:02:50.900Z,73.2
2022-12-31T13:17:55.016Z,73.7
2022-12-31T13:27:50.905Z,73.7
2022-12-31T13:32:50.939Z,73.7
2022-12-31T13:42:50.942Z,73.4
2022-12-31T13:52:50.912Z,73.2
2022-12-31T14:02:51.065Z,73.6
2022-12-31T14:12:50.904Z,73.7
2022-12-31T14:17:50.912Z,73.7
2022-12-31T14:22:50.939Z,73.7
2022-12-31T14:27:50.910Z,73.7
2022-12-31T14:37:50.912Z,73.4
2022-12-31T14:42:50.940Z,73.2
2022-12-31T14:52:50.910Z,73.4
2022-12-31T15:02:50.996Z,73.5
2022-12-31T15:12:50.917Z,73.7
2022-12-31T15:17:50.903Z,73.6
2022-12-31T15:22:50.963Z,73.5
2022-12-31T15:27:50.958Z,73.3
2022-12-31T15:37:50.912Z,73.1
2022-12-31T15:47:50.937Z,73.1
2022-12-31T15:57:50.909Z,73.9
2022-12-31T16:07:50.940Z,73.5
2022-12-31T16:17:50.912Z,73.2
2022-12-31T16:27:51.025Z,73.1
2022-12-31T16:32:50.917Z,72.9
2022-12-31T16:42:50.911Z,73.2
2022-12-31T16:47:50.937Z,73.2
2022-12-31T16:52:50.915Z,73.4
2022-12-31T17:02:51.019Z,73.7
2022-12-31T17:07:50.944Z,73.5
2022-12-31T17:13:26.794Z,73.3
2022-12-31T17:22:50.911Z,73
2022-12-31T17:27:50.944Z,73.1
2022-12-31T17:32:50.915Z,73.2
2022-12-31T17:37:50.919Z,73.4
2022-12-31T17:47:50.960Z,73.5
2022-12-31T17:52:50.915Z,73.6
2022-12-31T17:57:50.930Z,73.5
2022-12-31T18:07:50.952Z,73.2
2022-12-31T18:12:50.934Z,73
2022-12-31T18:17:50.945Z,72.9
2022-12-31T18:27:50.950Z,73
2022-12-31T18:32:50.928Z,73.3
2022-12-31T18:37:50.930Z,73.3
2022-12-31T18:47:50.951Z,73.3
2022-12-31T18:52:50.928Z,73.2
2022-12-31T19:02:50.969Z,72.9
2022-12-31T19:12:50.952Z,72.7
2022-12-31T19:22:50.927Z,72.9
2022-12-31T19:27:51.103Z,73
2022-12-31T19:32:51.007Z,72.9
2022-12-31T19:42:50.926Z,72.5
2022-12-31T19:47:50.924Z,72.3
2022-12-31T19:52:50.979Z,72.2
2022-12-31T20:02:51.187Z,72.1
2022-12-31T20:07:50.952Z,72
2022-12-31T20:17:50.961Z,72.1
2022-12-31T20:27:50.945Z,71.9
2022-12-31T20:37:50.955Z,71.6
2022-12-31T20:42:50.929Z,71.6
2022-12-31T20:52:50.931Z,71.5
2022-12-31T20:57:50.959Z,71.4
2022-12-31T21:07:50.931Z,71.5
2022-12-31T21:12:50.948Z,71.5
2022-12-31T21:22:50.951Z,71.2
2022-12-31T21:27:50.934Z,71.1
2022-12-31T21:32:50.932Z,70.9
2022-12-31T21:37:58.924Z,70.9
2022-12-31T21:47:50.984Z,70.9
2022-12-31T21:52:50.934Z,70.9
2022-12-31T22:02:59.729Z,70.9
2022-12-31T22:12:51.026Z,70.9
2022-12-31T22:17:50.934Z,70.7
2022-12-31T22:28:27.677Z,70.4
2022-12-31T22:38:05.218Z,70.3
2022-12-31T22:42:50.946Z,70.3
2022-12-31T22:47:50.955Z,70.4
2022-12-31T22:57:50.981Z,70.2
2022-12-31T23:02:50.977Z,70.1
2022-12-31T23:12:50.951Z,69.7
2022-12-31T23:17:51.001Z,69.6
2022-12-31T23:27:50.959Z,69.7
2022-12-31T23:32:50.956Z,69.8
2022-12-31T23:42:50.981Z,69.9
2022-12-31T23:47:50.959Z,69.8
2022-12-31T23:57:50.955Z,69.8
